createdAt,value
2022-08-05T00:00:16.126Z,98622.63
2022-08-05T00:02:51.631Z,98641.66
2022-08-05T00:06:02.008Z,98627.41
2022-08-05T00:08:35.216Z,98611.56
2022-08-05T00:10:56.045Z,98587.13
2022-08-05T00:13:38.101Z,98580.09
2022-08-05T00:16:08.499Z,98547.03
2022-08-05T00:18:36.115Z,98536.03
2022-08-05T00:21:05.220Z,98543.34
2022-08-05T00:23:46.556Z,98555.56
2022-08-05T00:26:21.006Z,98593.00
2022-08-05T00:28:49.283Z,98618.50
2022-08-05T00:31:16.313Z,98629.06
2022-08-05T00:34:55.636Z,98634.41
2022-08-05T00:37:11.069Z,98579.78
2022-08-05T00:39:16.139Z,98574.16
2022-08-05T00:41:51.750Z,98591.97
2022-08-05T00:44:19.035Z,98592.50
2022-08-05T00:46:54.093Z,98566.13
2022-08-05T00:49:44.739Z,98565.22
2022-08-05T00:52:18.855Z,98565.38
2022-08-05T00:54:58.322Z,98575.84
2022-08-05T00:57:25.406Z,98584.50
2022-08-05T00:59:58.489Z,98606.22
2022-08-05T01:02:25.044Z,98621.53
2022-08-05T01:04:51.817Z,98634.38
2022-08-05T01:07:18.395Z,98635.00
2022-08-05T01:09:47.372Z,98631.34
2022-08-05T01:12:25.116Z,98632.66
2022-08-05T01:15:03.903Z,98630.09
2022-08-05T01:17:53.755Z,98640.41
2022-08-05T01:20:39.692Z,98654.84
2022-08-05T01:23:35.532Z,98651.34
2022-08-05T01:26:29.614Z,98642.06
2022-08-05T01:29:04.319Z,98638.91
2022-08-05T01:31:45.225Z,98633.13
2022-08-05T01:34:26.880Z,98635.19
2022-08-05T01:37:09.563Z,98623.72
2022-08-05T01:39:47.837Z,98629.59
2022-08-05T01:42:17.288Z,98648.47
2022-08-05T01:44:54.092Z,98649.09
2022-08-05T01:47:23.947Z,98646.69
2022-08-05T01:50:01.960Z,98645.88
2022-08-05T01:52:32.252Z,98649.69
2022-08-05T01:55:04.487Z,98652.38
2022-08-05T01:58:10.810Z,98654.91
2022-08-05T02:00:21.184Z,98656.03
2022-08-05T02:03:23.992Z,98657.91
2022-08-05T02:05:58.016Z,98654.13
2022-08-05T02:08:31.031Z,98649.44
2022-08-05T02:11:05.236Z,98648.63
2022-08-05T02:13:53.466Z,98650.44
2022-08-05T02:16:29.133Z,98652.06
2022-08-05T02:19:19.609Z,98657.34
2022-08-05T02:22:25.939Z,98682.63
2022-08-05T02:25:04.841Z,98702.91
2022-08-05T02:27:58.082Z,98705.44
2022-08-05T02:30:27.835Z,98716.94
2022-08-05T02:32:58.981Z,98710.78
2022-08-05T02:35:33.274Z,98689.88
2022-08-05T02:38:09.312Z,98644.41
2022-08-05T02:40:40.950Z,98634.34
2022-08-05T02:43:09.461Z,98654.88
2022-08-05T02:45:52.764Z,98663.34
2022-08-05T02:48:29.527Z,98662.69
2022-08-05T02:50:59.957Z,98653.44
2022-08-05T02:53:29.156Z,98650.63
2022-08-05T02:56:08.404Z,98661.44
2022-08-05T02:58:43.729Z,98676.38
2022-08-05T03:01:15.414Z,98675.25
2022-08-05T03:04:02.968Z,98679.50
2022-08-05T03:06:56.563Z,98685.13
2022-08-05T03:09:18.050Z,98688.75
2022-08-05T03:12:22.569Z,98694.09
2022-08-05T03:14:49.127Z,98696.59
2022-08-05T03:17:15.661Z,98704.28
2022-08-05T03:19:42.343Z,98713.13
2022-08-05T03:22:16.252Z,98722.66
2022-08-05T03:24:47.293Z,98743.75
2022-08-05T03:27:18.589Z,98733.31
2022-08-05T03:30:07.278Z,98715.38
2022-08-05T03:32:32.113Z,98723.28
2022-08-05T03:35:00.779Z,98757.34
2022-08-05T03:37:27.646Z,98762.50
2022-08-05T03:40:01.896Z,98772.06
2022-08-05T03:42:32.281Z,98764.19
2022-08-05T03:44:59.808Z,98745.34
2022-08-05T03:47:30.505Z,98751.16
2022-08-05T03:50:01.905Z,98757.72
2022-08-05T03:52:38.672Z,98735.88
2022-08-05T03:56:05.995Z,98727.72
2022-08-05T03:58:17.873Z,98720.91
2022-08-05T04:00:51.410Z,98709.34
2022-08-05T04:03:28.412Z,98696.50
2022-08-05T04:05:59.199Z,98700.66
2022-08-05T04:08:35.105Z,98678.38
2022-08-05T04:11:07.405Z,98671.13
2022-08-05T04:13:49.850Z,98654.78
2022-08-05T04:16:25.113Z,98648.47
2022-08-05T04:18:54.384Z,98597.66
2022-08-05T04:22:10.079Z,98564.88
2022-08-05T04:24:18.741Z,98553.34
2022-08-05T04:26:46.581Z,98556.75
2022-08-05T04:29:13.247Z,98545.94
2022-08-05T04:31:41.031Z,98542.09
2022-08-05T04:34:18.526Z,98525.84
2022-08-05T04:36:50.116Z,98512.75
2022-08-05T04:39:18.362Z,98515.34
2022-08-05T04:41:45.827Z,98502.97
2022-08-05T04:44:14.809Z,98506.16
2022-08-05T04:46:47.656Z,98507.78
2022-08-05T04:49:15.231Z,98513.66
2022-08-05T04:51:44.033Z,98505.91
2022-08-05T04:54:11.993Z,98508.44
2022-08-05T04:56:39.145Z,98501.69
2022-08-05T04:59:22.950Z,98502.41
2022-08-05T05:02:08.338Z,98497.00
2022-08-05T05:04:43.867Z,98512.38
2022-08-05T05:07:11.629Z,98521.19
2022-08-05T05:09:42.361Z,98528.63
2022-08-05T05:12:11.697Z,98533.84
2022-08-05T05:14:38.376Z,98524.06
2022-08-05T05:17:22.755Z,98530.03
2022-08-05T05:19:50.236Z,98542.06
2022-08-05T05:22:23.839Z,98544.63
2022-08-05T05:24:58.859Z,98557.53
2022-08-05T05:27:44.499Z,98564.56
2022-08-05T05:30:29.644Z,98563.63
2022-08-05T05:33:00.368Z,98575.84
2022-08-05T05:35:29.126Z,98596.66
2022-08-05T05:38:03.420Z,98611.75
2022-08-05T05:40:34.338Z,98616.91
2022-08-05T05:43:02.173Z,98619.69
2022-08-05T05:45:29.211Z,98640.69
2022-08-05T05:48:05.438Z,98650.28
2022-08-05T05:50:41.323Z,98669.75
2022-08-05T05:53:22.147Z,98689.34
2022-08-05T05:55:51.425Z,98689.44
2022-08-05T05:58:30.390Z,98682.47
2022-08-05T06:01:13.121Z,98692.75
2022-08-05T06:04:00.833Z,98685.31
2022-08-05T06:06:33.025Z,98679.06
2022-08-05T06:09:00.060Z,98672.59
2022-08-05T06:11:28.938Z,98683.97
2022-08-05T06:13:55.956Z,98677.34
2022-08-05T06:16:28.597Z,98677.88
2022-08-05T06:19:00.916Z,98674.97
2022-08-05T06:21:36.921Z,98680.81
2022-08-05T06:24:07.672Z,98670.06
2022-08-05T06:26:40.057Z,98662.97
2022-08-05T06:29:25.490Z,98659.41
2022-08-05T06:32:05.522Z,98664.03
2022-08-05T06:34:48.266Z,98675.50
2022-08-05T06:37:56.014Z,98684.59
2022-08-05T06:40:07.488Z,98691.31
2022-08-05T06:42:34.042Z,98678.28
2022-08-05T06:45:00.592Z,98687.81
2022-08-05T06:48:44.294Z,98705.41
2022-08-05T06:50:18.952Z,98723.59
2022-08-05T06:53:03.515Z,98706.97
2022-08-05T06:55:36.607Z,98698.69
2022-08-05T06:58:29.565Z,98697.66
2022-08-05T07:00:50.847Z,98697.66
2022-08-05T07:03:17.958Z,98704.91
2022-08-05T07:05:46.259Z,98713.63
2022-08-05T07:08:13.519Z,98703.13
2022-08-05T07:10:52.798Z,98705.31
2022-08-05T07:13:58.548Z,98714.97
2022-08-05T07:18:00.458Z,98710.41
2022-08-05T07:20:23.040Z,98715.44
2022-08-05T07:22:17.679Z,98706.19
2022-08-05T07:24:52.719Z,98694.19
2022-08-05T07:27:20.326Z,98676.97
2022-08-05T07:30:28.053Z,98669.91
2022-08-05T07:32:38.393Z,98669.00
2022-08-05T07:35:56.723Z,98679.88
2022-08-05T07:37:56.199Z,98672.25
2022-08-05T07:40:32.243Z,98677.72
2022-08-05T07:42:59.894Z,98672.56
2022-08-05T07:45:57.059Z,98663.94
2022-08-05T07:49:02.031Z,98650.91
2022-08-05T07:51:08.612Z,98640.25
2022-08-05T07:53:51.675Z,98645.59
2022-08-05T07:56:59.828Z,98649.56
2022-08-05T07:59:05.149Z,98643.91
2022-08-05T08:01:41.676Z,98636.81
2022-08-05T08:04:23.028Z,98636.75
2022-08-05T08:07:05.610Z,98641.88
2022-08-05T08:09:33.856Z,98641.00
2022-08-05T08:12:09.346Z,98642.25
2022-08-05T08:14:38.017Z,98646.97
2022-08-05T08:17:15.736Z,98641.09
2022-08-05T08:20:21.924Z,98626.75
2022-08-05T08:22:32.360Z,98620.22
2022-08-05T08:25:03.182Z,98620.50
2022-08-05T08:27:47.911Z,98617.75
2022-08-05T08:30:33.954Z,98618.03
2022-08-05T08:33:13.909Z,98615.66
2022-08-05T08:35:53.778Z,98616.78
2022-08-05T08:38:35.454Z,98616.06
2022-08-05T08:41:09.615Z,98620.56
2022-08-05T08:44:57.933Z,98627.56
2022-08-05T08:46:28.532Z,98633.44
2022-08-05T08:49:07.751Z,98642.06
2022-08-05T08:52:03.909Z,98639.97
2022-08-05T08:54:33.836Z,98641.44
2022-08-05T08:57:11.588Z,98647.03
2022-08-05T08:59:41.825Z,98638.72
2022-08-05T09:02:14.642Z,98638.53
2022-08-05T09:04:57.867Z,98652.13
2022-08-05T09:07:39.494Z,98654.91
2022-08-05T09:10:27.842Z,98659.91
2022-08-05T09:12:57.741Z,98666.78
2022-08-05T09:15:31.873Z,98667.41
2022-08-05T09:18:06.325Z,98669.44
2022-08-05T09:20:37.712Z,98667.78
2022-08-05T09:23:18.794Z,98674.19
2022-08-05T09:26:00.818Z,98669.75
2022-08-05T09:28:32.329Z,98673.00
2022-08-05T09:31:23.213Z,98669.97
2022-08-05T09:33:54.831Z,98668.78
2022-08-05T09:36:27.324Z,98670.06
2022-08-05T09:39:02.533Z,98685.34
2022-08-05T09:41:33.142Z,98675.63
2022-08-05T09:44:05.053Z,98683.28
2022-08-05T09:46:35.040Z,98682.81
2022-08-05T09:49:19.095Z,98682.22
2022-08-05T09:51:49.915Z,98685.38
2022-08-05T09:54:21.417Z,98689.75
2022-08-05T09:56:57.565Z,98693.63
2022-08-05T09:59:28.046Z,98687.09
2022-08-05T10:01:57.826Z,98699.31
2022-08-05T10:04:36.028Z,98701.94
2022-08-05T10:07:21.052Z,98695.75
2022-08-05T10:10:13.972Z,98705.78
2022-08-05T10:12:51.795Z,98707.75
2022-08-05T10:15:34.393Z,98710.78
2022-08-05T10:18:11.912Z,98715.31
2022-08-05T10:20:48.743Z,98709.13
2022-08-05T10:23:33.980Z,98714.81
2022-08-05T10:26:14.044Z,98707.34
2022-08-05T10:28:46.554Z,98709.53
2022-08-05T10:32:51.847Z,98704.31
2022-08-05T10:34:02.517Z,98690.28
2022-08-05T10:36:30.704Z,98700.19
2022-08-05T10:39:10.361Z,98707.34
2022-08-05T10:42:03.342Z,98721.31
2022-08-05T10:44:32.333Z,98731.41
2022-08-05T10:46:59.237Z,98738.09
2022-08-05T10:49:33.026Z,98726.28
2022-08-05T10:52:03.250Z,98736.63
2022-08-05T10:55:03.258Z,98727.75
2022-08-05T10:57:32.113Z,98729.84
2022-08-05T11:00:20.488Z,98716.59
2022-08-05T11:03:25.599Z,98720.94
2022-08-05T11:06:15.888Z,98726.19
2022-08-05T11:09:24.261Z,98723.56
2022-08-05T11:12:26.392Z,98732.66
2022-08-05T11:15:20.143Z,98742.44
2022-08-05T11:17:59.346Z,98753.97
2022-08-05T11:20:46.480Z,98748.72
2022-08-05T11:23:25.931Z,98751.94
2022-08-05T11:26:28.101Z,98755.44
2022-08-05T11:28:56.572Z,98752.53
2022-08-05T11:31:56.713Z,98749.81
2022-08-05T11:34:21.177Z,98752.81
2022-08-05T11:36:53.246Z,98759.38
2022-08-05T11:39:49.253Z,98767.28
2022-08-05T11:42:27.967Z,98766.03
2022-08-05T11:45:03.007Z,98774.56
2022-08-05T11:47:49.701Z,98793.34
2022-08-05T11:50:17.688Z,98789.13
2022-08-05T11:52:46.077Z,98792.16
2022-08-05T11:55:15.445Z,98788.44
2022-08-05T11:58:10.289Z,98793.22
2022-08-05T12:00:38.461Z,98812.59
2022-08-05T12:03:28.710Z,98811.19
2022-08-05T12:06:03.147Z,98821.59
2022-08-05T12:08:33.189Z,98834.16
2022-08-05T12:11:06.107Z,98830.16
2022-08-05T12:13:49.496Z,98823.56
2022-08-05T12:16:19.241Z,98835.50
2022-08-05T12:18:49.623Z,98832.22
2022-08-05T12:21:32.864Z,98830.84
2022-08-05T12:24:09.168Z,98851.91
2022-08-05T12:26:38.923Z,98857.06
2022-08-05T12:29:09.508Z,98871.22
2022-08-05T12:31:44.903Z,98881.59
2022-08-05T12:34:20.500Z,98882.34
2022-08-05T12:36:49.798Z,98866.16
2022-08-05T12:39:17.671Z,98883.06
2022-08-05T12:41:48.697Z,98891.56
2022-08-05T12:44:21.611Z,98916.09
2022-08-05T12:46:59.657Z,98917.81
2022-08-05T12:50:03.897Z,98931.16
2022-08-05T12:52:39.072Z,98945.78
2022-08-05T12:55:25.643Z,98946.16
2022-08-05T12:58:49.985Z,98960.72
2022-08-05T13:02:00.690Z,98960.63
2022-08-05T13:03:45.415Z,98975.66
2022-08-05T13:06:14.434Z,98969.94
2022-08-05T13:08:50.861Z,98964.50
2022-08-05T13:11:25.458Z,98976.16
2022-08-05T13:14:36.289Z,98980.22
2022-08-05T13:17:08.315Z,98989.16
2022-08-05T13:19:51.808Z,98996.56
2022-08-05T13:22:29.590Z,98991.13
2022-08-05T13:25:05.203Z,98998.44
2022-08-05T13:27:35.605Z,98995.75
2022-08-05T13:30:35.781Z,98999.19
2022-08-05T13:32:57.541Z,99007.94
2022-08-05T13:35:43.250Z,99003.16
2022-08-05T13:38:28.328Z,99014.78
2022-08-05T13:41:01.961Z,99021.25
2022-08-05T13:43:43.368Z,99027.28
2022-08-05T13:46:13.784Z,99019.47
2022-08-05T13:48:57.993Z,99027.72
2022-08-05T13:51:36.525Z,99034.78
2022-08-05T13:54:11.866Z,99034.25
2022-08-05T13:56:44.923Z,99040.50
2022-08-05T13:59:27.461Z,99039.44
2022-08-05T14:02:00.329Z,99037.41
2022-08-05T14:04:57.184Z,99041.88
2022-08-05T14:07:59.845Z,99035.06
2022-08-05T14:10:28.052Z,99041.25
2022-08-05T14:12:57.099Z,99039.31
2022-08-05T14:16:06.161Z,99040.56
2022-08-05T14:18:17.797Z,99048.91
2022-08-05T14:20:47.999Z,99046.22
2022-08-05T14:23:23.432Z,99054.75
2022-08-05T14:25:54.127Z,99047.78
2022-08-05T14:28:26.245Z,99046.81
2022-08-05T14:30:54.317Z,99053.34
2022-08-05T14:33:22.612Z,99053.00
2022-08-05T14:35:51.783Z,99060.09
2022-08-05T14:38:31.788Z,99054.84
2022-08-05T14:41:01.369Z,99063.59
2022-08-05T14:43:59.629Z,99059.91
2022-08-05T14:46:14.526Z,99065.28
2022-08-05T14:48:41.468Z,99059.81
2022-08-05T14:51:09.365Z,99051.88
2022-08-05T14:53:44.662Z,99062.38
2022-08-05T14:56:11.871Z,99058.88
2022-08-05T14:58:47.610Z,99070.09
2022-08-05T15:01:47.105Z,99062.03
2022-08-05T15:04:11.515Z,99068.81
2022-08-05T15:06:38.879Z,99076.25
2022-08-05T15:09:07.156Z,99075.34
2022-08-05T15:11:51.885Z,99078.47
2022-08-05T15:14:35.862Z,99075.09
2022-08-05T15:17:09.962Z,99089.34
2022-08-05T15:19:55.453Z,99097.72
2022-08-05T15:22:22.202Z,99098.09
2022-08-05T15:24:54.220Z,99099.84
2022-08-05T15:27:20.763Z,99104.84
2022-08-05T15:29:47.366Z,99100.06
2022-08-05T15:32:16.458Z,99101.06
2022-08-05T15:34:43.352Z,99107.03
2022-08-05T15:37:14.707Z,99108.19
2022-08-05T15:41:04.793Z,99106.03
2022-08-05T15:42:56.641Z,99105.66
2022-08-05T15:45:16.869Z,99107.69
2022-08-05T15:47:45.854Z,99111.25
2022-08-05T15:50:15.234Z,99105.81
2022-08-05T15:52:53.912Z,99102.69
2022-08-05T15:55:25.094Z,99113.22
2022-08-05T15:58:08.729Z,99114.00
2022-08-05T16:00:50.970Z,99117.56
2022-08-05T16:03:21.961Z,99122.50
2022-08-05T16:05:52.584Z,99120.69
2022-08-05T16:08:19.407Z,99115.59
2022-08-05T16:10:46.070Z,99123.63
2022-08-05T16:13:19.319Z,99122.94
2022-08-05T16:15:51.808Z,99124.50
2022-08-05T16:18:18.765Z,99122.94
2022-08-05T16:20:46.313Z,99123.44
2022-08-05T16:23:12.946Z,99123.75
2022-08-05T16:25:40.096Z,99121.44
2022-08-05T16:28:09.811Z,99126.69
2022-08-05T16:30:37.714Z,99131.84
2022-08-05T16:33:04.431Z,99131.63
2022-08-05T16:35:33.777Z,99129.03
2022-08-05T16:38:23.969Z,99135.63
2022-08-05T16:40:59.527Z,99124.25
2022-08-05T16:43:33.191Z,99132.53
2022-08-05T16:46:05.335Z,99130.91
2022-08-05T16:48:35.439Z,99134.34
2022-08-05T16:51:02.568Z,99136.06
2022-08-05T16:54:04.955Z,99131.19
2022-08-05T16:56:22.731Z,99136.50
2022-08-05T16:58:50.284Z,99137.06
2022-08-05T17:01:17.007Z,99140.69
2022-08-05T17:03:45.690Z,99138.31
2022-08-05T17:06:12.854Z,99145.44
2022-08-05T17:08:53.061Z,99146.44
2022-08-05T17:11:20.378Z,99141.56
2022-08-05T17:13:50.798Z,99146.81
2022-08-05T17:16:32.782Z,99144.31
2022-08-05T17:19:00.862Z,99156.50
2022-08-05T17:21:35.458Z,99146.25
2022-08-05T17:24:05.887Z,99151.81
2022-08-05T17:26:47.148Z,99156.25
2022-08-05T17:29:14.453Z,99152.03
2022-08-05T17:31:41.258Z,99152.13
2022-08-05T17:34:30.138Z,99155.03
2022-08-05T17:37:00.151Z,99156.16
2022-08-05T17:39:34.108Z,99161.47
2022-08-05T17:42:18.439Z,99163.41
2022-08-05T17:44:50.428Z,99163.56
2022-08-05T17:47:21.994Z,99169.00
2022-08-05T17:49:59.597Z,99167.25
2022-08-05T17:52:31.050Z,99171.56
2022-08-05T17:54:57.842Z,99177.66
2022-08-05T17:57:24.522Z,99184.78
2022-08-05T18:00:04.805Z,99180.38
2022-08-05T18:02:34.093Z,99178.63
2022-08-05T18:05:07.649Z,99186.94
2022-08-05T18:07:41.924Z,99191.41
2022-08-05T18:10:11.591Z,99194.13
2022-08-05T18:12:47.451Z,99194.97
2022-08-05T18:15:14.250Z,99194.22
2022-08-05T18:17:58.994Z,99197.69
2022-08-05T18:20:29.208Z,99199.69
2022-08-05T18:22:58.709Z,99203.16
2022-08-05T18:25:32.900Z,99197.69
2022-08-05T18:27:59.950Z,99205.72
2022-08-05T18:30:33.122Z,99204.19
2022-08-05T18:33:00.341Z,99204.31
2022-08-05T18:36:00.553Z,99209.81
2022-08-05T18:38:16.571Z,99206.25
2022-08-05T18:41:58.150Z,99221.28
2022-08-05T18:43:38.118Z,99222.34
2022-08-05T18:46:09.736Z,99221.63
2022-08-05T18:48:41.322Z,99229.47
2022-08-05T18:52:06.205Z,99233.03
2022-08-05T18:54:14.059Z,99228.53
2022-08-05T18:56:40.646Z,99237.88
2022-08-05T18:59:43.586Z,99231.78
2022-08-05T19:01:56.830Z,99237.88
2022-08-05T19:04:24.519Z,99236.06
2022-08-05T19:06:51.635Z,99236.50
2022-08-05T19:09:20.303Z,99238.78
2022-08-05T19:12:00.262Z,99238.53
2022-08-05T19:14:59.517Z,99243.22
2022-08-05T19:17:15.326Z,99250.59
2022-08-05T19:19:46.875Z,99256.94
2022-08-05T19:22:17.170Z,99263.28
2022-08-05T19:24:54.366Z,99268.50
2022-08-05T19:27:24.101Z,99268.69
2022-08-05T19:29:57.113Z,99276.66
2022-08-05T19:32:26.203Z,99284.75
2022-08-05T19:34:55.207Z,99296.34
2022-08-05T19:37:29.761Z,99304.50
2022-08-05T19:40:02.140Z,99308.56
2022-08-05T19:42:35.424Z,99316.00
2022-08-05T19:45:06.027Z,99326.84
2022-08-05T19:47:33.975Z,99327.00
2022-08-05T19:50:01.115Z,99337.88
2022-08-05T19:52:30.857Z,99345.19
2022-08-05T19:55:00.450Z,99344.34
2022-08-05T19:57:47.428Z,99350.72
2022-08-05T20:00:20.752Z,99357.16
2022-08-05T20:02:47.494Z,99362.53
2022-08-05T20:05:16.613Z,99368.94
2022-08-05T20:07:57.804Z,99377.09
2022-08-05T20:10:25.614Z,99383.59
2022-08-05T20:12:52.405Z,99376.44
2022-08-05T20:15:48.043Z,99390.94
2022-08-05T20:18:32.636Z,99390.25
2022-08-05T20:21:00.064Z,99392.91
2022-08-05T20:23:39.620Z,99395.56
2022-08-05T20:26:16.340Z,99402.00
2022-08-05T20:28:45.692Z,99408.28
2022-08-05T20:31:12.778Z,99409.28
2022-08-05T20:33:42.302Z,99403.28
2022-08-05T20:36:10.189Z,99413.22
2022-08-05T20:38:38.138Z,99414.91
2022-08-05T20:41:24.259Z,99414.84
2022-08-05T20:43:59.208Z,99417.47
2022-08-05T20:46:29.421Z,99419.44
2022-08-05T20:48:56.238Z,99429.38
2022-08-05T20:51:25.792Z,99425.25
2022-08-05T20:54:01.275Z,99437.63
2022-08-05T20:56:31.870Z,99430.22
2022-08-05T20:59:14.068Z,99435.44
2022-08-05T21:01:51.656Z,99445.41
2022-08-05T21:04:22.362Z,99441.31
2022-08-05T21:06:53.868Z,99444.25
2022-08-05T21:09:26.040Z,99448.81
2022-08-05T21:12:09.703Z,99457.69
2022-08-05T21:14:38.725Z,99451.38
2022-08-05T21:17:06.102Z,99447.66
2022-08-05T21:19:47.288Z,99445.00
2022-08-05T21:22:14.659Z,99448.66
2022-08-05T21:24:48.742Z,99448.81
2022-08-05T21:27:16.021Z,99457.19
2022-08-05T21:29:43.436Z,99462.72
2022-08-05T21:32:18.401Z,99461.78
2022-08-05T21:34:55.953Z,99467.91
2022-08-05T21:37:33.434Z,99467.34
2022-08-05T21:40:05.745Z,99474.38
2022-08-05T21:42:44.319Z,99476.84
2022-08-05T21:45:11.666Z,99480.06
2022-08-05T21:47:57.111Z,99475.50
2022-08-05T21:50:28.014Z,99470.94
2022-08-05T21:52:58.878Z,99473.72
2022-08-05T21:56:01.562Z,99488.91
2022-08-05T21:58:17.509Z,99479.06
2022-08-05T22:00:51.269Z,99483.94
2022-08-05T22:03:48.711Z,99484.09
2022-08-05T22:06:13.318Z,99490.28
2022-08-05T22:08:42.613Z,99487.81
2022-08-05T22:11:12.050Z,99487.69
2022-08-05T22:14:32.558Z,99486.59
2022-08-05T22:16:50.861Z,99488.81
2022-08-05T22:20:01.229Z,99495.16
2022-08-05T22:22:04.927Z,99492.41
2022-08-05T22:24:52.366Z,99497.78
2022-08-05T22:28:09.415Z,99504.91
2022-08-05T22:30:25.002Z,99500.22
2022-08-05T22:32:59.116Z,99498.22
2022-08-05T22:35:25.899Z,99495.84
2022-08-05T22:37:59.592Z,99486.84
2022-08-05T22:40:27.087Z,99497.53
2022-08-05T22:42:59.806Z,99505.75
2022-08-05T22:45:26.958Z,99510.38
2022-08-05T22:47:57.546Z,99509.41
2022-08-05T22:50:26.865Z,99509.44
2022-08-05T22:52:58.224Z,99514.00
2022-08-05T22:55:25.930Z,99514.03
2022-08-05T22:57:55.026Z,99526.66
2022-08-05T23:00:23.674Z,99523.13
2022-08-05T23:02:53.149Z,99530.06
2022-08-05T23:05:21.970Z,99528.50
2022-08-05T23:07:52.558Z,99529.50
2022-08-05T23:10:20.830Z,99517.19
2022-08-05T23:12:51.244Z,99518.03
2022-08-05T23:15:18.451Z,99518.84
2022-08-05T23:18:01.376Z,99527.13
2022-08-05T23:20:31.069Z,99518.16
2022-08-05T23:22:58.663Z,99521.78
2022-08-05T23:25:51.955Z,99531.47
2022-08-05T23:28:13.090Z,99529.81
2022-08-05T23:30:43.470Z,99534.34
2022-08-05T23:33:16.470Z,99522.00
2022-08-05T23:35:50.179Z,99526.47
2022-08-05T23:38:20.030Z,99535.41
2022-08-05T23:40:50.584Z,99539.06
2022-08-05T23:43:25.815Z,99540.91
2022-08-05T23:46:05.317Z,99540.91
2022-08-05T23:49:00.746Z,99549.78
2022-08-05T23:51:53.940Z,99556.81
2022-08-05T23:54:36.471Z,99560.38
2022-08-05T23:57:06.950Z,99557.69
